sensor_id;sensor_type;location;lat;lon;timestamp;P1;durP1;ratioP1;P2;durP2;ratioP2
4597;SDS011;62772;48.646;8.906;2023-02-03T00:00:41;4.10;;;2.60;;
4597;SDS011;62772;48.646;8.906;2023-02-03T00:05:42;3.47;;;2.30;;
4597;SDS011;62772;48.646;8.906;2023-02-03T00:10:43;3.47;;;2.40;;
4597;SDS011;62772;48.646;8.906;2023-02-03T00:15:43;4.20;;;2.40;;
4597;SDS011;62772;48.646;8.906;2023-02-03T00:20:44;5.00;;;2.40;;
4597;SDS011;62772;48.646;8.906;2023-02-03T00:25:44;2.90;;;2.30;;
4597;SDS011;62772;48.646;8.906;2023-02-03T00:30:45;3.27;;;2.23;;
4597;SDS011;62772;48.646;8.906;2023-02-03T00:35:45;6.10;;;2.10;;
4597;SDS011;62772;48.646;8.906;2023-02-03T00:40:52;2.57;;;2.10;;
4597;SDS011;62772;48.646;8.906;2023-02-03T00:45:53;2.57;;;2.10;;
4597;SDS011;62772;48.646;8.906;2023-02-03T00:50:54;2.67;;;2.13;;
4597;SDS011;62772;48.646;8.906;2023-02-03T00:55:54;2.80;;;2.10;;
4597;SDS011;62772;48.646;8.906;2023-02-03T01:00:55;3.13;;;2.20;;
4597;SDS011;62772;48.646;8.906;2023-02-03T01:05:56;2.80;;;2.07;;
4597;SDS011;62772;48.646;8.906;2023-02-03T01:11:09;2.50;;;2.10;;
4597;SDS011;62772;48.646;8.906;2023-02-03T01:16:13;3.30;;;2.33;;
4597;SDS011;62772;48.646;8.906;2023-02-03T01:21:17;2.37;;;2.00;;
4597;SDS011;62772;48.646;8.906;2023-02-03T01:26:23;3.40;;;2.23;;
4597;SDS011;62772;48.646;8.906;2023-02-03T01:31:26;4.00;;;2.43;;
4597;SDS011;62772;48.646;8.906;2023-02-03T01:36:35;3.60;;;2.50;;
4597;SDS011;62772;48.646;8.906;2023-02-03T01:41:36;5.67;;;3.00;;
4597;SDS011;62772;48.646;8.906;2023-02-03T01:46:40;3.77;;;2.53;;
4597;SDS011;62772;48.646;8.906;2023-02-03T01:51:47;3.53;;;2.17;;
4597;SDS011;62772;48.646;8.906;2023-02-03T01:56:59;3.93;;;2.83;;
4597;SDS011;62772;48.646;8.906;2023-02-03T02:02:02;5.37;;;2.80;;
4597;SDS011;62772;48.646;8.906;2023-02-03T02:07:05;3.90;;;3.00;;
4597;SDS011;62772;48.646;8.906;2023-02-03T02:12:07;4.17;;;2.70;;
4597;SDS011;62772;48.646;8.906;2023-02-03T02:17:30;5.90;;;3.10;;
4597;SDS011;62772;48.646;8.906;2023-02-03T02:33:40;4.97;;;3.00;;
4597;SDS011;62772;48.646;8.906;2023-02-03T02:49:18;5.93;;;2.83;;
4597;SDS011;62772;48.646;8.906;2023-02-03T02:54:24;4.47;;;2.90;;
4597;SDS011;62772;48.646;8.906;2023-02-03T02:59:28;4.40;;;2.40;;
4597;SDS011;62772;48.646;8.906;2023-02-03T03:04:30;3.70;;;2.50;;
4597;SDS011;62772;48.646;8.906;2023-02-03T03:09:37;3.70;;;2.33;;
4597;SDS011;62772;48.646;8.906;2023-02-03T03:14:42;5.77;;;2.87;;
4597;SDS011;62772;48.646;8.906;2023-02-03T03:19:48;3.63;;;2.60;;
4597;SDS011;62772;48.646;8.906;2023-02-03T03:25:04;3.17;;;2.20;;
4597;SDS011;62772;48.646;8.906;2023-02-03T03:30:17;3.47;;;2.07;;
4597;SDS011;62772;48.646;8.906;2023-02-03T03:35:21;3.50;;;2.07;;
4597;SDS011;62772;48.646;8.906;2023-02-03T03:40:25;1.80;;;1.60;;
4597;SDS011;62772;48.646;8.906;2023-02-03T03:45:43;2.17;;;1.70;;
4597;SDS011;62772;48.646;8.906;2023-02-03T03:50:50;2.37;;;1.90;;
4597;SDS011;62772;48.646;8.906;2023-02-03T03:55:56;2.07;;;1.70;;
4597;SDS011;62772;48.646;8.906;2023-02-03T04:01:00;2.33;;;1.70;;
4597;SDS011;62772;48.646;8.906;2023-02-03T04:06:03;2.90;;;1.60;;
4597;SDS011;62772;48.646;8.906;2023-02-03T04:11:04;2.47;;;1.70;;
4597;SDS011;62772;48.646;8.906;2023-02-03T04:16:05;3.20;;;2.07;;
4597;SDS011;62772;48.646;8.906;2023-02-03T04:21:05;2.53;;;2.13;;
4597;SDS011;62772;48.646;8.906;2023-02-03T04:26:06;2.50;;;2.00;;
4597;SDS011;62772;48.646;8.906;2023-02-03T04:31:06;2.53;;;1.83;;
4597;SDS011;62772;48.646;8.906;2023-02-03T04:36:07;4.07;;;2.10;;
4597;SDS011;62772;48.646;8.906;2023-02-03T04:41:08;3.20;;;2.20;;
4597;SDS011;62772;48.646;8.906;2023-02-03T04:46:08;3.27;;;2.23;;
4597;SDS011;62772;48.646;8.906;2023-02-03T04:51:09;5.93;;;2.77;;
4597;SDS011;62772;48.646;8.906;2023-02-03T04:56:09;3.93;;;2.73;;
4597;SDS011;62772;48.646;8.906;2023-02-03T05:01:10;3.37;;;2.20;;
4597;SDS011;62772;48.646;8.906;2023-02-03T05:06:10;4.80;;;2.43;;
4597;SDS011;62772;48.646;8.906;2023-02-03T05:11:11;3.63;;;2.57;;
4597;SDS011;62772;48.646;8.906;2023-02-03T05:16:11;3.43;;;2.50;;
4597;SDS011;62772;48.646;8.906;2023-02-03T05:21:13;3.50;;;2.30;;
4597;SDS011;62772;48.646;8.906;2023-02-03T05:26:13;2.70;;;2.20;;
4597;SDS011;62772;48.646;8.906;2023-02-03T05:31:14;6.50;;;2.53;;
4597;SDS011;62772;48.646;8.906;2023-02-03T05:36:14;3.23;;;2.33;;
4597;SDS011;62772;48.646;8.906;2023-02-03T05:41:15;2.87;;;2.30;;
4597;SDS011;62772;48.646;8.906;2023-02-03T05:46:34;3.43;;;2.20;;
4597;SDS011;62772;48.646;8.906;2023-02-03T05:51:34;3.77;;;2.10;;
4597;SDS011;62772;48.646;8.906;2023-02-03T05:56:35;2.80;;;2.10;;
4597;SDS011;62772;48.646;8.906;2023-02-03T06:01:36;3.07;;;2.10;;
4597;SDS011;62772;48.646;8.906;2023-02-03T06:06:36;3.33;;;2.17;;
4597;SDS011;62772;48.646;8.906;2023-02-03T06:11:37;3.97;;;2.40;;
4597;SDS011;62772;48.646;8.906;2023-02-03T06:16:37;2.33;;;1.80;;
4597;SDS011;62772;48.646;8.906;2023-02-03T06:21:37;4.20;;;2.90;;
4597;SDS011;62772;48.646;8.906;2023-02-03T06:26:38;3.63;;;2.60;;
4597;SDS011;62772;48.646;8.906;2023-02-03T06:31:38;4.63;;;2.97;;
4597;SDS011;62772;48.646;8.906;2023-02-03T06:36:39;3.13;;;2.27;;
4597;SDS011;62772;48.646;8.906;2023-02-03T06:41:39;4.07;;;2.40;;
4597;SDS011;62772;48.646;8.906;2023-02-03T06:46:40;5.20;;;2.60;;
4597;SDS011;62772;48.646;8.906;2023-02-03T06:51:40;5.30;;;2.00;;
4597;SDS011;62772;48.646;8.906;2023-02-03T06:56:40;4.10;;;3.07;;
4597;SDS011;62772;48.646;8.906;2023-02-03T07:01:41;3.77;;;2.53;;
4597;SDS011;62772;48.646;8.906;2023-02-03T07:06:41;3.73;;;2.60;;
4597;SDS011;62772;48.646;8.906;2023-02-03T07:11:42;5.50;;;3.10;;
4597;SDS011;62772;48.646;8.906;2023-02-03T07:16:42;5.30;;;2.93;;
4597;SDS011;62772;48.646;8.906;2023-02-03T07:21:42;6.03;;;3.40;;
4597;SDS011;62772;48.646;8.906;2023-02-03T07:26:43;6.30;;;3.90;;
4597;SDS011;62772;48.646;8.906;2023-02-03T07:31:43;10.37;;;5.53;;
4597;SDS011;62772;48.646;8.906;2023-02-03T07:36:44;7.80;;;4.10;;
4597;SDS011;62772;48.646;8.906;2023-02-03T07:41:44;5.80;;;4.00;;
4597;SDS011;62772;48.646;8.906;2023-02-03T07:46:45;7.97;;;4.20;;
4597;SDS011;62772;48.646;8.906;2023-02-03T07:51:45;7.40;;;4.23;;
4597;SDS011;62772;48.646;8.906;2023-02-03T07:56:45;10.43;;;4.77;;
4597;SDS011;62772;48.646;8.906;2023-02-03T08:01:46;10.03;;;5.70;;
4597;SDS011;62772;48.646;8.906;2023-02-03T08:06:46;7.07;;;4.73;;
4597;SDS011;62772;48.646;8.906;2023-02-03T08:11:47;7.93;;;4.97;;
4597;SDS011;62772;48.646;8.906;2023-02-03T08:16:47;7.07;;;4.60;;
4597;SDS011;62772;48.646;8.906;2023-02-03T08:21:48;8.13;;;4.70;;
4597;SDS011;62772;48.646;8.906;2023-02-03T08:26:48;7.63;;;4.63;;
4597;SDS011;62772;48.646;8.906;2023-02-03T08:31:49;7.37;;;5.03;;
4597;SDS011;62772;48.646;8.906;2023-02-03T08:36:49;9.00;;;5.47;;
4597;SDS011;62772;48.646;8.906;2023-02-03T08:41:49;9.17;;;5.33;;
4597;SDS011;62772;48.646;8.906;2023-02-03T08:46:50;8.67;;;4.50;;
4597;SDS011;62772;48.646;8.906;2023-02-03T08:51:51;9.03;;;4.50;;
4597;SDS011;62772;48.646;8.906;2023-02-03T08:56:52;7.03;;;4.37;;
4597;SDS011;62772;48.646;8.906;2023-02-03T09:01:53;8.30;;;4.50;;
4597;SDS011;62772;48.646;8.906;2023-02-03T09:06:54;7.60;;;4.73;;
4597;SDS011;62772;48.646;8.906;2023-02-03T09:11:54;11.53;;;5.00;;
4597;SDS011;62772;48.646;8.906;2023-02-03T09:17:01;12.27;;;6.67;;
4597;SDS011;62772;48.646;8.906;2023-02-03T09:22:03;11.13;;;5.30;;
4597;SDS011;62772;48.646;8.906;2023-02-03T09:27:04;9.63;;;5.27;;
4597;SDS011;62772;48.646;8.906;2023-02-03T09:32:04;8.73;;;4.53;;
4597;SDS011;62772;48.646;8.906;2023-02-03T09:37:08;4.90;;;3.80;;
4597;SDS011;62772;48.646;8.906;2023-02-03T09:42:12;4.70;;;2.90;;
4597;SDS011;62772;48.646;8.906;2023-02-03T09:47:18;4.87;;;2.53;;
4597;SDS011;62772;48.646;8.906;2023-02-03T09:52:24;4.93;;;2.50;;
4597;SDS011;62772;48.646;8.906;2023-02-03T09:57:29;4.20;;;2.47;;
4597;SDS011;62772;48.646;8.906;2023-02-03T10:18:11;3.10;;;2.20;;
4597;SDS011;62772;48.646;8.906;2023-02-03T10:23:28;2.53;;;1.80;;
4597;SDS011;62772;48.646;8.906;2023-02-03T10:28:40;2.70;;;2.03;;
4597;SDS011;62772;48.646;8.906;2023-02-03T10:33:47;4.80;;;2.73;;
4597;SDS011;62772;48.646;8.906;2023-02-03T10:44:21;3.23;;;2.30;;
4597;SDS011;62772;48.646;8.906;2023-02-03T10:49:30;3.80;;;2.50;;
4597;SDS011;62772;48.646;8.906;2023-02-03T10:54:32;4.00;;;1.90;;
4597;SDS011;62772;48.646;8.906;2023-02-03T10:59:34;3.07;;;2.00;;
4597;SDS011;62772;48.646;8.906;2023-02-03T11:04:36;3.60;;;1.93;;
4597;SDS011;62772;48.646;8.906;2023-02-03T11:09:37;2.30;;;1.80;;
4597;SDS011;62772;48.646;8.906;2023-02-03T11:14:44;3.40;;;2.20;;
4597;SDS011;62772;48.646;8.906;2023-02-03T11:19:50;2.73;;;2.07;;
4597;SDS011;62772;48.646;8.906;2023-02-03T11:24:52;2.90;;;2.17;;
4597;SDS011;62772;48.646;8.906;2023-02-03T11:30:14;3.30;;;1.80;;
4597;SDS011;62772;48.646;8.906;2023-02-03T11:35:21;2.90;;;1.90;;
4597;SDS011;62772;48.646;8.906;2023-02-03T11:40:30;3.60;;;2.20;;
4597;SDS011;62772;48.646;8.906;2023-02-03T11:45:41;2.83;;;1.60;;
4597;SDS011;62772;48.646;8.906;2023-02-03T11:50:52;1.80;;;1.60;;
4597;SDS011;62772;48.646;8.906;2023-02-03T12:01:24;2.13;;;1.47;;
4597;SDS011;62772;48.646;8.906;2023-02-03T12:06:51;3.80;;;2.67;;
4597;SDS011;62772;48.646;8.906;2023-02-03T12:12:16;2.63;;;1.90;;
4597;SDS011;62772;48.646;8.906;2023-02-03T12:22:59;3.83;;;2.40;;
4597;SDS011;62772;48.646;8.906;2023-02-03T12:33:42;6.00;;;2.10;;
4597;SDS011;62772;48.646;8.906;2023-02-03T12:39:02;3.60;;;1.93;;
4597;SDS011;62772;48.646;8.906;2023-02-03T12:44:15;2.20;;;1.77;;
4597;SDS011;62772;48.646;8.906;2023-02-03T12:49:25;2.70;;;2.00;;
4597;SDS011;62772;48.646;8.906;2023-02-03T12:54:46;2.43;;;1.90;;
4597;SDS011;62772;48.646;8.906;2023-02-03T13:05:25;3.27;;;2.00;;
4597;SDS011;62772;48.646;8.906;2023-02-03T13:10:44;2.90;;;2.03;;
4597;SDS011;62772;48.646;8.906;2023-02-03T13:15:49;3.43;;;2.37;;
4597;SDS011;62772;48.646;8.906;2023-02-03T13:20:52;2.23;;;1.67;;
4597;SDS011;62772;48.646;8.906;2023-02-03T13:41:55;5.80;;;3.53;;
4597;SDS011;62772;48.646;8.906;2023-02-03T13:47:15;6.97;;;3.60;;
4597;SDS011;62772;48.646;8.906;2023-02-03T13:57:36;4.33;;;3.50;;
4597;SDS011;62772;48.646;8.906;2023-02-03T14:02:39;3.57;;;2.70;;
4597;SDS011;62772;48.646;8.906;2023-02-03T14:07:42;4.57;;;2.90;;
4597;SDS011;62772;48.646;8.906;2023-02-03T14:22:50;6.30;;;3.60;;
4597;SDS011;62772;48.646;8.906;2023-02-03T14:28:01;5.60;;;3.50;;
4597;SDS011;62772;48.646;8.906;2023-02-03T14:33:06;6.77;;;4.00;;
4597;SDS011;62772;48.646;8.906;2023-02-03T14:38:10;6.37;;;3.37;;
4597;SDS011;62772;48.646;8.906;2023-02-03T14:59:20;7.03;;;2.67;;
4597;SDS011;62772;48.646;8.906;2023-02-03T15:04:27;2.73;;;1.83;;
4597;SDS011;62772;48.646;8.906;2023-02-03T15:14:38;4.70;;;2.97;;
4597;SDS011;62772;48.646;8.906;2023-02-03T15:19:39;3.37;;;2.47;;
4597;SDS011;62772;48.646;8.906;2023-02-03T15:24:41;4.47;;;3.33;;
4597;SDS011;62772;48.646;8.906;2023-02-03T15:29:42;4.03;;;2.83;;
4597;SDS011;62772;48.646;8.906;2023-02-03T15:34:46;5.70;;;3.67;;
4597;SDS011;62772;48.646;8.906;2023-02-03T15:39:55;5.00;;;2.90;;
4597;SDS011;62772;48.646;8.906;2023-02-03T15:45:05;11.67;;;5.13;;
4597;SDS011;62772;48.646;8.906;2023-02-03T16:00:37;5.37;;;3.63;;
4597;SDS011;62772;48.646;8.906;2023-02-03T16:05:40;6.43;;;3.60;;
4597;SDS011;62772;48.646;8.906;2023-02-03T16:10:41;3.83;;;2.67;;
4597;SDS011;62772;48.646;8.906;2023-02-03T16:15:41;3.70;;;2.57;;
4597;SDS011;62772;48.646;8.906;2023-02-03T16:20:49;4.03;;;2.77;;
4597;SDS011;62772;48.646;8.906;2023-02-03T16:26:13;3.80;;;2.60;;
4597;SDS011;62772;48.646;8.906;2023-02-03T16:31:17;6.03;;;3.37;;
4597;SDS011;62772;48.646;8.906;2023-02-03T16:36:38;4.00;;;2.63;;
4597;SDS011;62772;48.646;8.906;2023-02-03T16:41:59;4.50;;;3.03;;
4597;SDS011;62772;48.646;8.906;2023-02-03T16:47:26;3.23;;;2.50;;
4597;SDS011;62772;48.646;8.906;2023-02-03T16:52:47;5.30;;;3.30;;
4597;SDS011;62772;48.646;8.906;2023-02-03T16:57:47;9.40;;;5.70;;
4597;SDS011;62772;48.646;8.906;2023-02-03T17:02:50;6.50;;;4.00;;
4597;SDS011;62772;48.646;8.906;2023-02-03T17:07:50;6.13;;;3.97;;
4597;SDS011;62772;48.646;8.906;2023-02-03T17:12:51;4.87;;;3.37;;
4597;SDS011;62772;48.646;8.906;2023-02-03T17:17:52;6.37;;;4.07;;
4597;SDS011;62772;48.646;8.906;2023-02-03T17:22:52;8.67;;;4.80;;
4597;SDS011;62772;48.646;8.906;2023-02-03T17:27:53;5.97;;;3.80;;
4597;SDS011;62772;48.646;8.906;2023-02-03T17:32:54;10.07;;;5.60;;
4597;SDS011;62772;48.646;8.906;2023-02-03T17:37:54;11.70;;;5.67;;
4597;SDS011;62772;48.646;8.906;2023-02-03T17:42:55;7.27;;;4.47;;
4597;SDS011;62772;48.646;8.906;2023-02-03T17:47:55;5.60;;;3.63;;
4597;SDS011;62772;48.646;8.906;2023-02-03T17:52:58;5.27;;;3.10;;
4597;SDS011;62772;48.646;8.906;2023-02-03T17:57:59;5.63;;;3.70;;
4597;SDS011;62772;48.646;8.906;2023-02-03T18:02:59;4.30;;;2.77;;
4597;SDS011;62772;48.646;8.906;2023-02-03T18:07:59;4.97;;;3.77;;
4597;SDS011;62772;48.646;8.906;2023-02-03T18:13:00;6.33;;;3.70;;
4597;SDS011;62772;48.646;8.906;2023-02-03T18:18:00;6.57;;;4.03;;
4597;SDS011;62772;48.646;8.906;2023-02-03T18:23:01;6.50;;;3.93;;
4597;SDS011;62772;48.646;8.906;2023-02-03T18:28:01;6.87;;;4.30;;
4597;SDS011;62772;48.646;8.906;2023-02-03T18:33:02;4.90;;;3.53;;
4597;SDS011;62772;48.646;8.906;2023-02-03T18:38:03;3.80;;;2.60;;
4597;SDS011;62772;48.646;8.906;2023-02-03T18:43:03;3.20;;;2.37;;
4597;SDS011;62772;48.646;8.906;2023-02-03T18:48:04;3.93;;;2.87;;
4597;SDS011;62772;48.646;8.906;2023-02-03T18:53:05;5.77;;;3.67;;
4597;SDS011;62772;48.646;8.906;2023-02-03T18:58:05;5.23;;;3.30;;
4597;SDS011;62772;48.646;8.906;2023-02-03T19:03:06;4.97;;;3.33;;
4597;SDS011;62772;48.646;8.906;2023-02-03T19:08:07;4.50;;;3.27;;
4597;SDS011;62772;48.646;8.906;2023-02-03T19:13:07;5.70;;;3.37;;
4597;SDS011;62772;48.646;8.906;2023-02-03T19:18:08;7.50;;;4.17;;
4597;SDS011;62772;48.646;8.906;2023-02-03T19:23:09;5.43;;;4.07;;
4597;SDS011;62772;48.646;8.906;2023-02-03T19:28:10;5.70;;;3.67;;
4597;SDS011;62772;48.646;8.906;2023-02-03T19:33:11;5.07;;;2.93;;
4597;SDS011;62772;48.646;8.906;2023-02-03T19:38:11;5.03;;;3.00;;
4597;SDS011;62772;48.646;8.906;2023-02-03T19:43:12;6.50;;;3.10;;
4597;SDS011;62772;48.646;8.906;2023-02-03T19:48:12;6.90;;;2.07;;
4597;SDS011;62772;48.646;8.906;2023-02-03T19:53:13;3.30;;;2.40;;
4597;SDS011;62772;48.646;8.906;2023-02-03T19:58:15;3.80;;;2.53;;
4597;SDS011;62772;48.646;8.906;2023-02-03T20:03:15;2.63;;;2.00;;
4597;SDS011;62772;48.646;8.906;2023-02-03T20:08:17;3.87;;;2.70;;
4597;SDS011;62772;48.646;8.906;2023-02-03T20:13:18;3.83;;;2.63;;
4597;SDS011;62772;48.646;8.906;2023-02-03T20:18:18;3.83;;;3.00;;
4597;SDS011;62772;48.646;8.906;2023-02-03T20:23:19;10.60;;;5.37;;
4597;SDS011;62772;48.646;8.906;2023-02-03T20:28:23;7.70;;;4.00;;
4597;SDS011;62772;48.646;8.906;2023-02-03T20:33:26;6.50;;;3.63;;
4597;SDS011;62772;48.646;8.906;2023-02-03T20:38:28;3.97;;;2.87;;
4597;SDS011;62772;48.646;8.906;2023-02-03T20:43:28;7.20;;;5.00;;
4597;SDS011;62772;48.646;8.906;2023-02-03T20:48:30;6.67;;;3.27;;
4597;SDS011;62772;48.646;8.906;2023-02-03T20:53:31;4.50;;;2.80;;
4597;SDS011;62772;48.646;8.906;2023-02-03T20:58:32;4.27;;;2.80;;
4597;SDS011;62772;48.646;8.906;2023-02-03T21:03:34;2.53;;;2.00;;
4597;SDS011;62772;48.646;8.906;2023-02-03T21:08:53;3.13;;;2.43;;
4597;SDS011;62772;48.646;8.906;2023-02-03T21:13:54;3.00;;;2.27;;
4597;SDS011;62772;48.646;8.906;2023-02-03T21:18:56;4.13;;;2.20;;
4597;SDS011;62772;48.646;8.906;2023-02-03T21:23:59;3.07;;;2.20;;
4597;SDS011;62772;48.646;8.906;2023-02-03T21:29:00;4.27;;;2.30;;
4597;SDS011;62772;48.646;8.906;2023-02-03T21:34:34;3.17;;;2.10;;
4597;SDS011;62772;48.646;8.906;2023-02-03T21:39:33;25.70;;;10.50;;
4597;SDS011;62772;48.646;8.906;2023-02-03T21:44:33;38.43;;;17.63;;
4597;SDS011;62772;48.646;8.906;2023-02-03T21:49:37;5.13;;;3.20;;
4597;SDS011;62772;48.646;8.906;2023-02-03T21:54:37;3.70;;;2.97;;
4597;SDS011;62772;48.646;8.906;2023-02-03T21:59:42;8.90;;;4.00;;
4597;SDS011;62772;48.646;8.906;2023-02-03T22:04:46;4.53;;;3.47;;
4597;SDS011;62772;48.646;8.906;2023-02-03T22:09:46;3.60;;;2.80;;
4597;SDS011;62772;48.646;8.906;2023-02-03T22:14:49;8.23;;;4.90;;
4597;SDS011;62772;48.646;8.906;2023-02-03T22:19:50;6.80;;;4.30;;
4597;SDS011;62772;48.646;8.906;2023-02-03T22:24:50;7.27;;;4.30;;
4597;SDS011;62772;48.646;8.906;2023-02-03T22:29:51;7.80;;;4.70;;
4597;SDS011;62772;48.646;8.906;2023-02-03T22:34:55;6.40;;;4.47;;
4597;SDS011;62772;48.646;8.906;2023-02-03T22:39:55;7.40;;;5.00;;
4597;SDS011;62772;48.646;8.906;2023-02-03T22:44:56;8.07;;;5.20;;
4597;SDS011;62772;48.646;8.906;2023-02-03T22:49:56;7.87;;;5.00;;
4597;SDS011;62772;48.646;8.906;2023-02-03T22:54:57;6.63;;;4.90;;
4597;SDS011;62772;48.646;8.906;2023-02-03T22:59:57;7.30;;;5.50;;
4597;SDS011;62772;48.646;8.906;2023-02-03T23:04:58;7.30;;;5.33;;
4597;SDS011;62772;48.646;8.906;2023-02-03T23:09:58;7.90;;;5.10;;
4597;SDS011;62772;48.646;8.906;2023-02-03T23:14:59;9.30;;;5.10;;
4597;SDS011;62772;48.646;8.906;2023-02-03T23:20:00;7.60;;;4.77;;
4597;SDS011;62772;48.646;8.906;2023-02-03T23:25:00;9.57;;;5.00;;
4597;SDS011;62772;48.646;8.906;2023-02-03T23:30:01;8.00;;;5.37;;
4597;SDS011;62772;48.646;8.906;2023-02-03T23:35:03;6.40;;;4.80;;
4597;SDS011;62772;48.646;8.906;2023-02-03T23:40:22;10.57;;;6.03;;
4597;SDS011;62772;48.646;8.906;2023-02-03T23:45:23;8.77;;;5.67;;
4597;SDS011;62772;48.646;8.906;2023-02-03T23:50:23;9.03;;;5.40;;
4597;SDS011;62772;48.646;8.906;2023-02-03T23:55:24;7.00;;;4.77;;
